Finningley, United Kingdom
Current Conditions -  °F | °C
As of 9:50 AM on Tuesday 21 Oct 2014 (Local Time) from EGCN Reporting Station
Few Clouds Few Clouds  
Wind Chill: 12°   Ceiling: Unl
Heat Index: 12°   Visibility: 6mi
Dew Point:   Wind: 23mph
Humidity: 67%   Direction: 270°W
Pressure: 29.47"   Gusts: 35mph
Location:  53.49°N, 0.99°W
Report Text: EGCN 210850Z 27020G30KT 9999 FEW037 12/06 Q0998
Loading
Personal Weather Stations






























Interactive Weather Map
Tropical Storm Tracking
New forecast layout! Learn more

10-Day Weather Forecast

Advertisements
Track Severe Weather on mobile